Friendship, WI (53934)

2:29 PM CDT on July 24, 2016 (GMT -0500)
Necedah Township | | Change Station

Elev 919 ft 43.99 °N, 90.01 °W | Updated 4 seconds ago

Partly Cloudy
Partly Cloudy
88.2 °F
Feels Like 95 °F
N
6.7
Wind Variable Wind from NE
Gusts 6.7 mph

Today
High -- | Low -- °F
--% Chance of Precip.
Yesterday
High -- | Low -- °F
Precip. -- in
Pressure 29.83 in
Visibility 10.0 miles
Clouds Few 19000 ft
Heat Index 95 °F
Dew Point 72 °F
Humidity 59%
Rainfall 0.11 in
Snow Depth Not available.
5:39 AM 8:31 PM
Waning Gibbous, 74% visible
METAR KVOK 241858Z AUTO 28011G18KT 10SM FEW190 30/24 A2984 RMK AO2 SLP101 T02980242
Pressure 29.83 in
Visibility 10.0 miles
Clouds Few 19000 ft
Heat Index 95 °F
Dew Point 72 °F
Humidity 59%
Rainfall 0.11 in
Snow Depth Not available.
5:39 AM 8:31 PM
Waning Gibbous, 74% visible
METAR KVOK 241858Z AUTO 28011G18KT 10SM FEW190 30/24 A2984 RMK AO2 SLP101 T02980242

10-Day Weather Forecast

Almanac

Astronomy

Jul. 24, 2016 Rise Set
Actual Time
Civil Twilight
Nautical Twilight
Astronomical Twilight
Moon
Length of Visible Light
Length of Day
Tomorrow will be .
, % of the Moon is Illuminated

Today's Extremes

State Highs State Lows

Community

WunderPhotos

Upload Photos

1,927,172 photos uploaded!

WunderBlog® & News

Nearby

Air Quality

  Air Quality AQ Index Pollutant
Not available.

Snow Depth

Station Depth Elevation

Earthquake Activity

City Distance Mag. Time & Date
Minimum magnitude displayed is 2.5.

Coastal Water Temperatures

Place Temperature

Stations

Nearby Weather Stations

Station Location Temp. Windchill Dew Point Humidity Wind Precip. Elev Updated Type
                   

Watches & Warnings

There are currently no watches in effect.